ADDS - METARS form results

Aviation Digital Data Service (ADDS)

Output produced by METARs form (1157 UTC 18 August 2019)
found at http://aviationweather.gov/metar/data/
 
METAR text: KC09 181135Z AUTO 17008KT 5SM TSRA SCT020 BKN046 OVC060 22/22 A2980 RMK AO2 LTG DSNT ALQS P0017 T02190216
Conditions at: KC09 (MORRIS-WASHBURN , IL, US) observed 1135 UTC 18 August 2019
Temperature: 21.9°C (71°F)
Dewpoint: 21.6°C (71°F) [RH = 98%]
Pressure (altimeter): 29.80 inches Hg (1009.2 mb)
Winds: from the S (170 degrees) at 9 MPH (8 knots; 4.1 m/s)
Visibility: 5 miles ( 8 km)
Ceiling: 4600 feet AGL
Clouds: scattered clouds at 2000 feet AGL
broken clouds at 4600 feet AGL
overcast cloud deck at 6000 feet AGL
Weather: TSRA  (rain associated with thunderstorm(s))

METAR text: KC09 181115Z AUTO 15005KT 7SM -TSRA SCT022 BKN041 OVC055 21/21 A2981 RMK AO2 LTG DSNT ALQS P0010 T02120210
Conditions at: KC09 (MORRIS-WASHBURN , IL, US) observed 1115 UTC 18 August 2019
Temperature: 21.2°C (70°F)
Dewpoint: 21.0°C (70°F) [RH = 99%]
Pressure (altimeter): 29.81 inches Hg (1009.6 mb)
Winds: from the SSE (150 degrees) at 6 MPH (5 knots; 2.6 m/s)
Visibility: 7 miles (11 km)
Ceiling: 4100 feet AGL
Clouds: scattered clouds at 2200 feet AGL
broken clouds at 4100 feet AGL
overcast cloud deck at 5500 feet AGL
Weather: -TSRA  (light rain associated with thunderstorm(s))